createdAt,value
2022-09-24T00:01:16.022Z,0.90
2022-09-24T00:03:47.175Z,1.00
2022-09-24T00:06:18.986Z,1.00
2022-09-24T00:08:47.260Z,1.08
2022-09-24T00:11:14.112Z,0.98
2022-09-24T00:13:41.126Z,0.80
2022-09-24T00:16:11.975Z,0.80
2022-09-24T00:18:39.818Z,0.97
2022-09-24T00:21:16.807Z,0.90
2022-09-24T00:23:43.711Z,1.20
2022-09-24T00:26:31.961Z,1.00
2022-09-24T00:28:59.451Z,0.82
2022-09-24T00:31:26.448Z,0.88
2022-09-24T00:33:54.378Z,0.82
2022-09-24T00:36:22.157Z,0.70
2022-09-24T00:38:51.213Z,0.90
2022-09-24T00:41:20.076Z,0.95
2022-09-24T00:43:48.455Z,1.00
2022-09-24T00:46:36.795Z,1.00
2022-09-24T00:49:15.603Z,1.00
2022-09-24T00:51:44.289Z,1.00
2022-09-24T00:54:13.817Z,0.90
2022-09-24T00:56:41.210Z,0.93
2022-09-24T00:59:11.519Z,0.95
2022-09-24T01:01:38.035Z,0.90
2022-09-24T01:04:05.131Z,0.85
2022-09-24T01:06:31.688Z,1.00
2022-09-24T01:08:58.413Z,1.00
2022-09-24T01:11:42.888Z,1.00
2022-09-24T01:14:15.037Z,1.00
2022-09-24T01:17:29.536Z,0.90
2022-09-24T01:20:03.793Z,1.08
2022-09-24T01:22:51.726Z,1.00
2022-09-24T01:25:27.598Z,0.80
2022-09-24T01:28:19.483Z,0.98
2022-09-24T01:33:18.147Z,0.95
2022-09-24T01:35:49.039Z,0.93
2022-09-24T01:38:22.369Z,1.03
2022-09-24T01:40:50.817Z,0.85
2022-09-24T01:43:20.308Z,0.90
2022-09-24T01:45:47.088Z,0.90
2022-09-24T01:48:13.742Z,0.90
2022-09-24T01:50:45.341Z,1.00
2022-09-24T01:55:50.858Z,1.05
2022-09-24T01:58:40.836Z,0.97
2022-09-24T02:01:10.836Z,1.17
2022-09-24T02:03:43.220Z,1.15
2022-09-24T02:06:15.171Z,1.10
2022-09-24T02:08:45.130Z,1.00
2022-09-24T02:11:18.278Z,1.23
2022-09-24T02:13:58.360Z,1.10
2022-09-24T02:16:29.423Z,1.10
2022-09-24T02:18:57.639Z,1.27
2022-09-24T02:21:24.707Z,1.23
2022-09-24T02:23:55.948Z,1.10
2022-09-24T02:26:22.719Z,1.10
2022-09-24T02:28:49.578Z,1.23
2022-09-24T02:31:24.111Z,1.10
2022-09-24T02:34:10.581Z,1.30
2022-09-24T02:36:38.485Z,1.23
2022-09-24T02:39:05.276Z,1.10
2022-09-24T02:41:33.060Z,1.30
2022-09-24T02:43:59.609Z,1.20
2022-09-24T02:46:26.148Z,1.30
2022-09-24T02:48:52.883Z,1.50
2022-09-24T02:51:19.438Z,1.67
2022-09-24T02:53:45.929Z,1.15
2022-09-24T02:56:12.586Z,1.30
2022-09-24T02:58:39.103Z,1.50
2022-09-24T03:01:06.112Z,1.50
2022-09-24T03:03:32.771Z,1.52
2022-09-24T03:05:59.412Z,1.70
2022-09-24T03:08:26.201Z,1.42
2022-09-24T03:10:53.050Z,1.52
2022-09-24T03:13:19.664Z,1.30
2022-09-24T03:15:46.519Z,1.45
2022-09-24T03:18:13.876Z,1.50
2022-09-24T03:20:40.435Z,1.35
2022-09-24T03:23:06.990Z,1.40
2022-09-24T03:25:33.576Z,1.38
2022-09-24T03:28:00.122Z,1.80
2022-09-24T03:30:45.181Z,1.40
2022-09-24T03:33:11.750Z,1.23
2022-09-24T03:35:38.264Z,1.50
2022-09-24T03:38:04.928Z,1.50
2022-09-24T03:40:31.493Z,1.40
2022-09-24T03:42:58.000Z,1.60
2022-09-24T03:45:24.673Z,1.35
2022-09-24T03:47:51.121Z,1.20
2022-09-24T03:50:18.023Z,1.38
2022-09-24T03:52:44.512Z,1.50
2022-09-24T03:55:11.045Z,1.42
2022-09-24T03:57:37.539Z,1.50
2022-09-24T04:00:04.777Z,1.50
2022-09-24T04:02:31.362Z,1.60
2022-09-24T04:04:58.829Z,1.25
2022-09-24T04:07:25.305Z,1.55
2022-09-24T04:09:51.828Z,1.45
2022-09-24T04:12:18.361Z,1.30
2022-09-24T04:14:44.817Z,1.30
2022-09-24T04:17:11.376Z,1.50
2022-09-24T04:19:39.658Z,1.30
2022-09-24T04:22:06.258Z,1.30
2022-09-24T04:24:33.023Z,1.40
2022-09-24T04:26:59.488Z,1.63
2022-09-24T04:29:26.012Z,1.52
2022-09-24T04:31:52.672Z,1.48
2022-09-24T04:34:20.824Z,1.60
2022-09-24T04:36:47.342Z,1.50
2022-09-24T04:39:13.923Z,1.42
2022-09-24T04:41:40.705Z,1.40
2022-09-24T04:44:07.323Z,1.60
2022-09-24T04:46:34.564Z,1.90
2022-09-24T04:49:01.343Z,1.90
2022-09-24T04:51:27.913Z,1.58
2022-09-24T04:53:54.462Z,1.60
2022-09-24T04:56:20.973Z,1.73
2022-09-24T04:58:50.641Z,1.90
2022-09-24T05:01:17.217Z,2.08
2022-09-24T05:03:45.190Z,1.70
2022-09-24T05:06:12.146Z,1.58
2022-09-24T05:08:38.755Z,1.85
2022-09-24T05:11:05.374Z,1.83
2022-09-24T05:13:31.904Z,2.17
2022-09-24T05:16:00.825Z,1.67
2022-09-24T05:18:27.969Z,1.77
2022-09-24T05:20:54.828Z,1.75
2022-09-24T05:23:21.684Z,1.67
2022-09-24T05:26:06.645Z,1.90
2022-09-24T05:28:33.269Z,1.40
2022-09-24T05:31:00.224Z,1.77
2022-09-24T05:33:26.967Z,1.58
2022-09-24T05:35:57.996Z,1.73
2022-09-24T05:38:24.712Z,1.80
2022-09-24T05:40:51.365Z,1.70
2022-09-24T05:43:19.384Z,1.60
2022-09-24T05:45:46.690Z,1.45
2022-09-24T05:48:13.344Z,1.50
2022-09-24T05:50:40.071Z,1.65
2022-09-24T05:53:06.599Z,1.40
2022-09-24T05:55:33.445Z,1.50
2022-09-24T05:58:07.346Z,1.40
2022-09-24T06:00:34.240Z,1.48
2022-09-24T06:03:11.654Z,1.50
2022-09-24T06:05:38.200Z,1.90
2022-09-24T06:08:05.440Z,2.75
2022-09-24T06:10:32.540Z,2.20
2022-09-24T06:12:59.081Z,2.33
2022-09-24T06:15:27.272Z,3.20
2022-09-24T06:17:54.989Z,2.53
2022-09-24T06:20:22.600Z,2.20
2022-09-24T06:22:49.297Z,2.33
2022-09-24T06:25:15.981Z,2.35
2022-09-24T06:27:42.452Z,2.45
2022-09-24T06:30:09.407Z,2.33
2022-09-24T06:32:35.951Z,2.60
2022-09-24T06:35:02.529Z,2.33
2022-09-24T06:37:29.045Z,2.60
2022-09-24T06:39:55.590Z,2.40
2022-09-24T06:42:22.076Z,2.22
2022-09-24T06:44:48.563Z,2.17
2022-09-24T06:47:15.120Z,3.70
2022-09-24T06:49:41.651Z,2.70
2022-09-24T06:52:08.212Z,2.65
2022-09-24T06:54:34.723Z,2.13
2022-09-24T06:57:01.531Z,3.15
2022-09-24T06:59:28.392Z,2.85
2022-09-24T07:01:54.992Z,2.97
2022-09-24T07:04:21.468Z,3.45
2022-09-24T07:07:06.540Z,3.17
2022-09-24T07:09:33.019Z,3.00
2022-09-24T07:12:01.487Z,2.95
2022-09-24T07:14:27.972Z,3.03
2022-09-24T07:16:54.580Z,2.50
2022-09-24T07:19:21.150Z,2.20
2022-09-24T07:21:47.752Z,2.22
2022-09-24T07:24:14.305Z,2.50
2022-09-24T07:26:40.873Z,2.72
2022-09-24T07:29:07.504Z,2.45
2022-09-24T07:31:36.383Z,2.67
2022-09-24T07:34:02.966Z,2.40
2022-09-24T07:36:31.413Z,2.97
2022-09-24T07:38:58.517Z,2.83
2022-09-24T07:41:25.827Z,2.70
2022-09-24T07:43:52.424Z,2.88
2022-09-24T07:46:20.171Z,2.83
2022-09-24T07:48:48.353Z,2.63
2022-09-24T07:51:16.468Z,2.42
2022-09-24T07:53:42.979Z,2.65
2022-09-24T07:56:09.414Z,3.00
2022-09-24T07:58:35.896Z,2.78
2022-09-24T08:01:03.156Z,2.72
2022-09-24T08:03:29.711Z,2.50
2022-09-24T08:05:59.616Z,2.97
2022-09-24T08:08:26.337Z,2.92
2022-09-24T08:10:53.055Z,2.85
2022-09-24T08:13:22.752Z,2.95
2022-09-24T08:16:01.509Z,3.03
2022-09-24T08:18:30.085Z,3.47
2022-09-24T08:20:56.666Z,7.05
2022-09-24T08:23:23.341Z,4.07
2022-09-24T08:25:49.922Z,4.45
2022-09-24T08:28:19.840Z,4.03
2022-09-24T08:30:46.849Z,4.55
2022-09-24T08:33:13.428Z,5.20
2022-09-24T08:35:40.300Z,5.65
2022-09-24T08:38:07.422Z,6.07
2022-09-24T08:40:39.610Z,5.57
2022-09-24T08:43:35.259Z,7.50
2022-09-24T08:46:27.449Z,7.03
2022-09-24T08:52:21.467Z,7.55
2022-09-24T08:54:49.627Z,7.18
2022-09-24T08:57:18.090Z,9.02
2022-09-24T08:59:47.463Z,7.22
2022-09-24T09:02:41.372Z,7.82
2022-09-24T09:05:25.041Z,8.68
2022-09-24T09:08:41.404Z,7.82
2022-09-24T09:11:03.122Z,7.20
2022-09-24T09:13:36.519Z,6.97
2022-09-24T09:16:13.274Z,7.15
2022-09-24T09:18:42.370Z,7.18
2022-09-24T09:21:45.026Z,6.53
2022-09-24T09:24:27.304Z,5.88
2022-09-24T09:26:55.951Z,5.80
2022-09-24T09:29:25.483Z,5.28
2022-09-24T09:32:09.954Z,5.53
2022-09-24T09:34:42.629Z,4.93
2022-09-24T09:37:33.189Z,4.75
2022-09-24T09:40:18.184Z,4.00
2022-09-24T09:42:45.568Z,4.07
2022-09-24T09:45:35.271Z,4.10
2022-09-24T09:48:03.305Z,3.55
2022-09-24T09:50:46.997Z,3.85
2022-09-24T09:53:22.281Z,4.38
2022-09-24T09:55:54.643Z,3.58
2022-09-24T09:58:26.514Z,3.10
2022-09-24T10:00:53.957Z,3.35
2022-09-24T10:03:26.396Z,3.33
2022-09-24T10:06:01.755Z,3.10
2022-09-24T10:08:28.715Z,2.85
2022-09-24T10:10:59.922Z,3.28
2022-09-24T10:13:27.449Z,2.92
2022-09-24T10:16:01.617Z,2.92
2022-09-24T10:18:49.569Z,2.63
2022-09-24T10:21:36.764Z,2.58
2022-09-24T10:24:07.052Z,2.30
2022-09-24T10:26:38.668Z,2.50
2022-09-24T10:29:33.296Z,2.80
2022-09-24T10:32:00.077Z,2.35
2022-09-24T10:34:28.521Z,2.42
2022-09-24T10:37:15.507Z,2.38
2022-09-24T10:39:42.127Z,2.20
2022-09-24T10:42:26.018Z,2.80
2022-09-24T10:44:53.934Z,2.80
2022-09-24T10:47:53.493Z,2.70
2022-09-24T10:51:13.357Z,2.45
2022-09-24T10:53:42.781Z,2.95
2022-09-24T10:56:20.758Z,2.50
2022-09-24T10:58:53.365Z,3.13
2022-09-24T11:01:29.081Z,3.17
2022-09-24T11:04:29.297Z,2.83
2022-09-24T11:07:25.348Z,3.45
2022-09-24T11:10:42.794Z,3.75
2022-09-24T11:13:19.608Z,4.03
2022-09-24T11:16:09.131Z,4.25
2022-09-24T11:19:07.195Z,4.10
2022-09-24T11:21:54.102Z,5.38
2022-09-24T11:24:35.694Z,4.32
2022-09-24T11:27:27.345Z,3.47
2022-09-24T11:30:18.744Z,3.58
2022-09-24T11:32:49.587Z,4.00
2022-09-24T11:35:40.931Z,4.00
2022-09-24T11:38:18.113Z,4.05
2022-09-24T11:41:23.003Z,4.43
2022-09-24T11:44:04.360Z,4.63
2022-09-24T11:46:48.274Z,4.88
2022-09-24T11:49:24.444Z,4.07
2022-09-24T11:52:03.050Z,4.28
2022-09-24T11:54:44.735Z,4.40
2022-09-24T11:57:16.183Z,4.60
2022-09-24T11:59:42.712Z,6.38
2022-09-24T12:02:27.845Z,4.30
2022-09-24T12:05:02.731Z,4.85
2022-09-24T12:07:39.277Z,4.25
2022-09-24T12:10:26.170Z,4.20
2022-09-24T12:12:59.878Z,3.83
2022-09-24T12:15:31.943Z,3.47
2022-09-24T12:18:03.136Z,3.00
2022-09-24T12:20:31.093Z,3.00
2022-09-24T12:23:04.976Z,2.90
2022-09-24T12:25:40.200Z,2.10
2022-09-24T12:28:12.383Z,2.13
2022-09-24T12:31:12.259Z,2.10
2022-09-24T12:33:53.145Z,2.00
2022-09-24T12:36:29.552Z,1.80
2022-09-24T12:39:16.847Z,1.63
2022-09-24T12:41:45.404Z,1.60
2022-09-24T12:44:12.456Z,1.40
2022-09-24T12:46:42.081Z,1.50
2022-09-24T12:49:27.158Z,1.52
2022-09-24T12:51:55.754Z,1.83
2022-09-24T12:54:31.386Z,1.40
2022-09-24T12:57:20.191Z,1.60
2022-09-24T12:59:53.865Z,1.48
2022-09-24T13:02:28.538Z,1.60
2022-09-24T13:05:00.983Z,1.70
2022-09-24T13:07:39.926Z,1.52
2022-09-24T13:10:15.864Z,1.60
2022-09-24T13:12:43.016Z,2.13
2022-09-24T13:15:28.433Z,1.17
2022-09-24T13:18:04.384Z,1.55
2022-09-24T13:20:31.991Z,1.60
2022-09-24T13:23:00.545Z,1.50
2022-09-24T13:25:27.427Z,1.80
2022-09-24T13:27:59.743Z,1.95
2022-09-24T13:30:36.496Z,2.08
2022-09-24T13:33:13.552Z,3.05
2022-09-24T13:35:45.117Z,3.00
2022-09-24T13:38:21.603Z,2.95
2022-09-24T13:41:26.505Z,3.78
2022-09-24T13:43:59.134Z,3.70
2022-09-24T13:46:26.527Z,3.30
2022-09-24T13:48:56.249Z,3.15
2022-09-24T13:51:28.002Z,3.58
2022-09-24T13:56:35.301Z,2.97
2022-09-24T13:59:11.316Z,3.53
2022-09-24T14:01:44.302Z,3.60
2022-09-24T14:04:20.642Z,3.50
2022-09-24T14:06:50.877Z,3.45
2022-09-24T14:09:23.405Z,4.15
2022-09-24T14:11:52.439Z,3.70
2022-09-24T14:14:21.174Z,3.80
2022-09-24T14:16:47.657Z,4.30
2022-09-24T14:19:15.982Z,3.15
2022-09-24T14:21:57.208Z,3.03
2022-09-24T14:24:26.507Z,2.90
2022-09-24T14:26:58.006Z,3.00
2022-09-24T14:29:53.969Z,2.65
2022-09-24T14:32:29.186Z,2.70
2022-09-24T14:35:00.995Z,2.50
2022-09-24T14:40:02.812Z,2.42
2022-09-24T14:42:37.627Z,2.10
2022-09-24T14:45:06.207Z,2.10
2022-09-24T14:47:34.372Z,2.25
2022-09-24T14:50:03.948Z,2.03
2022-09-24T14:52:33.773Z,2.42
2022-09-24T14:55:17.356Z,2.10
2022-09-24T14:57:48.556Z,1.80
2022-09-24T15:00:30.876Z,1.73
2022-09-24T15:03:03.260Z,1.80
2022-09-24T15:05:30.055Z,1.75
2022-09-24T15:11:05.478Z,1.73
2022-09-24T15:13:35.335Z,1.50
2022-09-24T15:16:28.193Z,1.98
2022-09-24T15:19:16.784Z,1.92
2022-09-24T15:21:44.228Z,1.48
2022-09-24T15:24:10.699Z,1.63
2022-09-24T15:26:41.146Z,1.70
2022-09-24T15:29:07.760Z,1.35
2022-09-24T15:31:34.386Z,1.30
2022-09-24T15:34:00.923Z,1.42
2022-09-24T15:36:27.548Z,1.50
2022-09-24T15:39:00.239Z,1.60
2022-09-24T15:41:26.739Z,1.58
2022-09-24T15:43:56.959Z,1.98
2022-09-24T15:46:23.838Z,1.80
2022-09-24T15:48:50.385Z,1.45
2022-09-24T15:51:19.821Z,1.67
2022-09-24T15:53:48.246Z,1.30
2022-09-24T15:56:16.006Z,1.70
2022-09-24T15:58:43.129Z,1.40
2022-09-24T16:01:14.816Z,1.40
2022-09-24T16:06:10.496Z,1.55
2022-09-24T16:08:37.024Z,1.70
2022-09-24T16:11:08.879Z,1.30
2022-09-24T16:13:35.924Z,1.60
2022-09-24T16:16:05.435Z,1.83
2022-09-24T16:18:32.381Z,1.70
2022-09-24T16:20:58.944Z,1.75
2022-09-24T16:23:25.805Z,1.85
2022-09-24T16:25:57.275Z,1.70
2022-09-24T16:28:24.486Z,1.60
2022-09-24T16:30:51.062Z,1.90
2022-09-24T16:33:17.714Z,1.83
2022-09-24T16:35:44.385Z,1.63
2022-09-24T16:38:11.299Z,1.58
2022-09-24T16:40:37.955Z,1.60
2022-09-24T16:43:04.469Z,1.30
2022-09-24T16:45:31.980Z,1.45
2022-09-24T16:47:58.765Z,1.30
2022-09-24T16:50:25.708Z,1.55
2022-09-24T16:52:54.863Z,1.50
2022-09-24T16:55:24.124Z,1.33
2022-09-24T16:57:53.612Z,2.53
2022-09-24T17:00:20.407Z,1.65
2022-09-24T17:02:47.340Z,1.58
2022-09-24T17:05:13.949Z,1.35
2022-09-24T17:07:40.499Z,1.50
2022-09-24T17:10:13.370Z,1.30
2022-09-24T17:12:44.340Z,1.20
2022-09-24T17:15:14.100Z,1.35
2022-09-24T17:17:49.579Z,1.13
2022-09-24T17:20:17.538Z,1.13
2022-09-24T17:22:44.092Z,1.20
2022-09-24T17:25:10.868Z,1.13
2022-09-24T17:27:37.507Z,0.88
2022-09-24T17:30:06.122Z,1.00
2022-09-24T17:32:32.670Z,1.20
2022-09-24T17:34:59.129Z,1.10
2022-09-24T17:37:27.473Z,0.98
2022-09-24T17:39:54.527Z,1.00
2022-09-24T17:42:21.067Z,1.05
2022-09-24T17:44:48.227Z,1.00
2022-09-24T17:47:15.695Z,1.10
2022-09-24T17:49:42.710Z,0.93
2022-09-24T17:52:09.674Z,1.10
2022-09-24T17:54:36.722Z,1.00
2022-09-24T17:57:03.781Z,0.95
2022-09-24T17:59:32.759Z,1.00
2022-09-24T18:02:00.793Z,1.10
2022-09-24T18:04:34.921Z,1.10
2022-09-24T18:07:02.078Z,1.00
2022-09-24T18:09:31.363Z,1.00
2022-09-24T18:12:00.902Z,1.00
2022-09-24T18:14:28.209Z,1.08
2022-09-24T18:16:56.955Z,1.00
2022-09-24T18:19:23.675Z,0.90
2022-09-24T18:21:50.253Z,1.00
2022-09-24T18:24:18.122Z,0.90
2022-09-24T18:26:50.845Z,1.02
2022-09-24T18:29:19.505Z,1.00
2022-09-24T18:31:46.954Z,0.80
2022-09-24T18:34:15.408Z,1.20
2022-09-24T18:36:44.124Z,0.80
2022-09-24T18:39:21.785Z,1.10
2022-09-24T18:41:51.470Z,0.80
2022-09-24T18:44:19.728Z,0.80
2022-09-24T18:46:47.038Z,0.80
2022-09-24T18:49:14.447Z,0.98
2022-09-24T18:51:43.821Z,0.90
2022-09-24T18:54:15.666Z,0.95
2022-09-24T18:56:43.606Z,0.98
2022-09-24T18:59:13.866Z,0.90
2022-09-24T19:01:44.161Z,0.90
2022-09-24T19:04:12.046Z,0.90
2022-09-24T19:06:42.755Z,0.90
2022-09-24T19:09:10.960Z,0.80
2022-09-24T19:11:39.626Z,0.95
2022-09-24T19:14:07.222Z,0.75
2022-09-24T19:16:35.271Z,0.80
2022-09-24T19:19:05.493Z,0.70
2022-09-24T19:21:35.246Z,0.88
2022-09-24T19:24:04.343Z,1.02
2022-09-24T19:26:35.243Z,1.00
2022-09-24T19:29:09.771Z,1.10
2022-09-24T19:31:44.429Z,0.98
2022-09-24T19:34:13.251Z,0.90
2022-09-24T19:36:45.352Z,0.80
2022-09-24T19:39:18.054Z,0.82
2022-09-24T19:41:47.643Z,0.90
2022-09-24T19:44:16.527Z,0.80
2022-09-24T19:46:47.742Z,0.77
2022-09-24T19:49:16.077Z,0.77
2022-09-24T19:51:45.138Z,0.73
2022-09-24T19:54:12.473Z,0.70
2022-09-24T19:56:41.503Z,0.80
2022-09-24T19:59:11.814Z,0.70
2022-09-24T20:01:38.880Z,0.80
2022-09-24T20:04:09.789Z,0.90
2022-09-24T20:06:37.877Z,0.90
2022-09-24T20:09:04.880Z,0.70
2022-09-24T20:11:34.748Z,0.90
2022-09-24T20:14:03.083Z,0.80
2022-09-24T20:16:32.627Z,0.75
2022-09-24T20:19:01.359Z,0.70
2022-09-24T20:21:34.363Z,0.70
2022-09-24T20:24:05.310Z,0.68
2022-09-24T20:26:50.767Z,0.65
2022-09-24T20:29:23.203Z,0.73
2022-09-24T20:31:55.542Z,0.80
2022-09-24T20:34:34.755Z,0.70
2022-09-24T20:37:04.379Z,0.73
2022-09-24T20:39:32.232Z,0.68
2022-09-24T20:42:08.103Z,0.70
2022-09-24T20:44:37.246Z,0.80
2022-09-24T20:47:06.068Z,0.65
2022-09-24T20:49:35.032Z,0.60
2022-09-24T20:52:03.169Z,0.70
2022-09-24T20:54:32.752Z,0.70
2022-09-24T20:57:02.293Z,0.70
2022-09-24T20:59:33.013Z,0.60
2022-09-24T21:02:01.085Z,0.70
2022-09-24T21:04:30.040Z,0.80
2022-09-24T21:09:33.087Z,0.60
2022-09-24T21:12:02.811Z,0.60
2022-09-24T21:14:32.571Z,0.50
2022-09-24T21:16:59.713Z,0.68
2022-09-24T21:19:28.703Z,0.50
2022-09-24T21:21:57.788Z,0.70
2022-09-24T21:24:30.574Z,0.60
2022-09-24T21:27:03.529Z,0.63
2022-09-24T21:29:30.878Z,0.50
2022-09-24T21:31:59.661Z,0.50
2022-09-24T21:34:27.162Z,0.50
2022-09-24T21:36:54.996Z,0.60
2022-09-24T21:39:29.373Z,0.50
2022-09-24T21:41:59.272Z,0.80
2022-09-24T21:44:32.169Z,0.63
2022-09-24T21:46:58.729Z,0.60
2022-09-24T21:49:26.303Z,0.80
2022-09-24T21:51:57.026Z,0.63
2022-09-24T21:54:26.552Z,0.70
2022-09-24T21:56:56.698Z,0.73
2022-09-24T21:59:41.886Z,0.63
2022-09-24T22:02:11.839Z,0.80
2022-09-24T22:04:40.985Z,0.73
2022-09-24T22:07:09.463Z,0.90
2022-09-24T22:09:38.744Z,0.77
2022-09-24T22:12:08.239Z,0.63
2022-09-24T22:14:36.791Z,0.85
2022-09-24T22:17:07.245Z,0.60
2022-09-24T22:19:34.377Z,0.70
2022-09-24T22:22:03.037Z,0.68
2022-09-24T22:24:30.241Z,0.60
2022-09-24T22:26:57.310Z,0.60
2022-09-24T22:29:24.415Z,0.80
2022-09-24T22:31:51.525Z,0.70
2022-09-24T22:34:38.658Z,0.63
2022-09-24T22:37:06.976Z,0.90
2022-09-24T22:39:34.552Z,0.60
2022-09-24T22:42:01.534Z,0.57
2022-09-24T22:44:30.735Z,0.63
2022-09-24T22:47:00.348Z,0.50
2022-09-24T22:49:26.895Z,0.60
2022-09-24T22:51:54.611Z,0.60
2022-09-24T22:54:21.409Z,0.57
2022-09-24T22:56:48.769Z,0.60
2022-09-24T22:59:15.620Z,0.70
2022-09-24T23:01:43.630Z,0.70
2022-09-24T23:04:13.297Z,0.57
2022-09-24T23:06:39.955Z,0.70
2022-09-24T23:09:06.477Z,0.70
2022-09-24T23:11:34.498Z,0.63
2022-09-24T23:14:06.833Z,0.70
2022-09-24T23:16:35.773Z,0.52
2022-09-24T23:19:04.797Z,0.70
2022-09-24T23:21:32.185Z,0.65
2022-09-24T23:24:01.551Z,0.70
2022-09-24T23:26:28.503Z,0.60
2022-09-24T23:28:56.171Z,0.63
2022-09-24T23:31:28.890Z,0.68
2022-09-24T23:33:57.432Z,0.70
2022-09-24T23:36:24.980Z,0.80
2022-09-24T23:38:52.522Z,0.75
2022-09-24T23:41:19.184Z,0.60
2022-09-24T23:43:46.198Z,0.70
2022-09-24T23:46:13.342Z,0.90
2022-09-24T23:48:40.487Z,0.60
2022-09-24T23:51:08.061Z,0.68
2022-09-24T23:53:35.389Z,0.70
2022-09-24T23:56:03.108Z,0.60
2022-09-24T23:58:30.065Z,0.50
